createdAt,value
2023-05-20T00:02:19.412Z,9.82
2023-05-20T00:07:41.858Z,9.80
2023-05-20T00:13:04.337Z,9.90
2023-05-20T00:18:26.246Z,9.92
2023-05-20T00:23:48.193Z,9.82
2023-05-20T00:29:10.213Z,9.84
2023-05-20T00:34:32.389Z,9.84
2023-05-20T00:39:54.710Z,9.82
2023-05-20T00:45:17.291Z,9.77
2023-05-20T00:50:40.206Z,9.89
2023-05-20T00:56:02.819Z,9.87
2023-05-20T01:01:25.096Z,9.84
2023-05-20T01:06:48.470Z,9.78
2023-05-20T01:12:26.528Z,9.90
2023-05-20T01:17:52.179Z,9.78
2023-05-20T01:23:16.166Z,9.77
2023-05-20T01:28:41.911Z,9.78
2023-05-20T01:34:05.092Z,9.94
2023-05-20T01:39:27.091Z,9.89
2023-05-20T01:44:49.129Z,9.92
2023-05-20T01:50:11.554Z,9.91
2023-05-20T01:55:33.388Z,9.97
2023-05-20T02:00:56.598Z,9.86
2023-05-20T02:06:18.586Z,9.88
2023-05-20T02:11:40.591Z,10.01
2023-05-20T02:17:02.363Z,10.08
2023-05-20T02:22:24.633Z,10.01
2023-05-20T02:27:46.745Z,10.06
2023-05-20T02:33:10.271Z,10.19
2023-05-20T02:38:32.937Z,10.23
2023-05-20T02:43:54.955Z,10.36
2023-05-20T02:49:16.991Z,10.30
2023-05-20T02:54:38.886Z,10.34
2023-05-20T03:00:01.545Z,10.45
2023-05-20T03:05:28.062Z,10.35
2023-05-20T03:10:51.579Z,10.47
2023-05-20T03:16:13.879Z,10.60
2023-05-20T03:21:35.674Z,10.64
2023-05-20T03:26:57.705Z,10.83
2023-05-20T03:32:19.979Z,10.76
2023-05-20T03:37:42.422Z,10.82
2023-05-20T03:43:04.625Z,11.07
2023-05-20T03:48:27.073Z,11.11
2023-05-20T03:53:49.116Z,11.37
2023-05-20T03:59:11.023Z,11.67
2023-05-20T04:04:33.138Z,11.77
2023-05-20T04:09:55.712Z,11.85
2023-05-20T04:15:20.049Z,12.07
2023-05-20T04:20:50.657Z,12.17
2023-05-20T04:26:13.438Z,12.44
2023-05-20T04:31:35.437Z,12.32
2023-05-20T04:36:58.793Z,12.40
2023-05-20T04:42:22.737Z,12.33
2023-05-20T04:47:46.426Z,12.26
2023-05-20T04:53:09.611Z,12.24
2023-05-20T04:58:32.257Z,12.09
2023-05-20T05:03:54.591Z,12.23
2023-05-20T05:09:16.546Z,12.37
2023-05-20T05:14:39.992Z,12.63
2023-05-20T05:20:02.069Z,12.87
2023-05-20T05:25:27.576Z,13.04
2023-05-20T05:30:49.817Z,13.28
2023-05-20T05:36:12.124Z,13.69
2023-05-20T05:41:34.091Z,13.43
2023-05-20T05:46:57.133Z,13.87
2023-05-20T05:52:18.915Z,14.24
2023-05-20T05:57:41.055Z,14.53
2023-05-20T06:03:10.030Z,14.77
2023-05-20T06:08:33.391Z,14.97
2023-05-20T06:13:56.522Z,15.55
2023-05-20T06:19:20.046Z,15.93
2023-05-20T06:24:42.108Z,16.57
2023-05-20T06:30:05.634Z,15.68
2023-05-20T06:35:28.283Z,15.89
2023-05-20T06:40:52.846Z,16.19
2023-05-20T06:46:14.864Z,15.72
2023-05-20T06:51:42.504Z,15.94
2023-05-20T06:57:04.918Z,15.59
2023-05-20T07:02:27.429Z,15.26
2023-05-20T07:07:49.760Z,16.60
2023-05-20T07:13:12.430Z,16.26
2023-05-20T07:18:34.620Z,16.92
2023-05-20T07:23:59.548Z,16.30
2023-05-20T07:29:22.138Z,16.36
2023-05-20T07:34:44.451Z,16.63
2023-05-20T07:40:08.108Z,16.17
2023-05-20T07:45:30.386Z,16.53
2023-05-20T07:50:53.009Z,16.75
2023-05-20T07:56:15.071Z,16.62
2023-05-20T08:01:37.683Z,16.26
2023-05-20T08:07:00.731Z,16.53
2023-05-20T08:12:42.678Z,17.92
2023-05-20T08:18:04.808Z,16.99
2023-05-20T08:23:27.667Z,16.63
2023-05-20T08:28:49.514Z,16.62
2023-05-20T08:34:13.140Z,16.30
2023-05-20T08:39:38.589Z,15.73
2023-05-20T08:45:04.468Z,15.72
2023-05-20T08:50:28.272Z,15.64
2023-05-20T08:56:00.831Z,15.31
2023-05-20T09:01:27.528Z,15.77
2023-05-20T09:06:51.853Z,15.83
2023-05-20T09:12:16.711Z,15.53
2023-05-20T09:17:41.054Z,15.55
2023-05-20T09:23:04.798Z,15.19
2023-05-20T09:28:27.232Z,15.11
2023-05-20T09:33:52.869Z,15.31
2023-05-20T09:39:23.772Z,15.25
2023-05-20T09:44:46.123Z,15.39
2023-05-20T09:50:11.390Z,15.51
2023-05-20T09:55:34.441Z,15.11
2023-05-20T10:00:56.514Z,15.02
2023-05-20T10:06:30.103Z,15.25
2023-05-20T10:12:04.800Z,15.16
2023-05-20T10:17:44.983Z,14.95
2023-05-20T10:23:07.114Z,15.33
2023-05-20T10:28:36.597Z,15.16
2023-05-20T10:33:59.683Z,15.10
2023-05-20T10:39:29.197Z,14.83
2023-05-20T10:44:51.875Z,14.76
2023-05-20T10:50:28.596Z,14.71
2023-05-20T10:55:55.613Z,14.70
2023-05-20T11:01:25.557Z,14.30
2023-05-20T11:06:52.973Z,14.35
2023-05-20T11:12:16.226Z,14.13
2023-05-20T11:17:39.401Z,14.15
2023-05-20T11:23:03.407Z,14.24
2023-05-20T11:28:26.308Z,14.40
2023-05-20T11:33:48.538Z,14.30
2023-05-20T11:39:12.653Z,14.22
2023-05-20T11:44:35.522Z,14.41
2023-05-20T11:49:57.612Z,14.39
2023-05-20T11:55:19.975Z,14.37
2023-05-20T12:00:51.184Z,14.58
2023-05-20T12:06:15.686Z,14.82
2023-05-20T12:11:41.563Z,14.45
2023-05-20T12:17:04.120Z,14.34
2023-05-20T12:22:25.934Z,14.24
2023-05-20T12:27:49.321Z,14.29
2023-05-20T12:33:11.833Z,14.12
2023-05-20T12:38:34.472Z,14.14
2023-05-20T12:43:57.170Z,14.19
2023-05-20T12:49:21.218Z,14.11
2023-05-20T12:54:43.962Z,13.85
2023-05-20T13:00:09.993Z,13.85
2023-05-20T13:05:33.627Z,13.73
2023-05-20T13:10:55.864Z,13.35
2023-05-20T13:16:18.653Z,13.22
2023-05-20T13:21:40.833Z,13.04
2023-05-20T13:27:09.226Z,13.35
2023-05-20T13:32:31.637Z,13.30
2023-05-20T13:37:56.999Z,13.39
2023-05-20T13:43:19.418Z,13.29
2023-05-20T13:48:41.925Z,13.24
2023-05-20T13:54:05.308Z,13.29
2023-05-20T13:59:28.050Z,13.07
2023-05-20T14:04:50.270Z,13.17
2023-05-20T14:10:12.074Z,13.05
2023-05-20T14:15:34.042Z,12.80
2023-05-20T14:20:58.377Z,12.76
2023-05-20T14:26:20.361Z,12.60
2023-05-20T14:31:42.673Z,12.68
2023-05-20T14:37:10.352Z,12.88
2023-05-20T14:42:32.249Z,12.88
2023-05-20T14:47:54.522Z,12.89
2023-05-20T14:53:17.943Z,12.86
2023-05-20T14:58:40.273Z,12.96
2023-05-20T15:04:02.472Z,12.76
2023-05-20T15:09:24.726Z,12.85
2023-05-20T15:14:46.829Z,12.73
2023-05-20T15:20:10.469Z,12.80
2023-05-20T15:25:32.718Z,12.72
2023-05-20T15:30:56.174Z,12.71
2023-05-20T15:36:18.464Z,12.69
2023-05-20T15:41:42.975Z,12.52
2023-05-20T15:47:06.675Z,12.34
2023-05-20T15:52:29.150Z,12.40
2023-05-20T15:57:52.293Z,12.54
2023-05-20T16:03:17.295Z,12.58
2023-05-20T16:08:41.298Z,12.46
2023-05-20T16:14:03.411Z,12.41
2023-05-20T16:19:25.514Z,12.56
2023-05-20T16:24:48.248Z,12.40
2023-05-20T16:30:11.530Z,12.33
2023-05-20T16:35:33.558Z,12.51
2023-05-20T16:40:55.680Z,12.43
2023-05-20T16:46:18.012Z,12.47
2023-05-20T16:51:40.195Z,12.40
2023-05-20T16:57:04.189Z,12.40
2023-05-20T17:02:27.108Z,12.34
2023-05-20T17:07:50.380Z,12.37
2023-05-20T17:13:12.906Z,12.39
2023-05-20T17:18:35.351Z,12.19
2023-05-20T17:23:57.842Z,12.35
2023-05-20T17:29:20.226Z,12.33
2023-05-20T17:34:42.555Z,12.30
2023-05-20T17:40:07.795Z,12.18
2023-05-20T17:45:29.769Z,12.22
2023-05-20T17:50:51.693Z,12.17
2023-05-20T17:56:14.300Z,12.21
2023-05-20T18:01:38.069Z,12.16
2023-05-20T18:07:00.698Z,12.07
2023-05-20T18:12:23.424Z,12.03
2023-05-20T18:17:46.233Z,11.90
2023-05-20T18:23:10.836Z,12.01
2023-05-20T18:28:33.150Z,11.99
2023-05-20T18:33:57.514Z,11.87
2023-05-20T18:39:22.523Z,11.95
2023-05-20T18:44:46.799Z,11.91
2023-05-20T18:50:09.112Z,11.90
2023-05-20T18:55:31.428Z,11.95
2023-05-20T19:00:53.415Z,11.89
2023-05-20T19:06:17.104Z,11.80
2023-05-20T19:11:41.822Z,11.90
2023-05-20T19:17:04.203Z,11.82
2023-05-20T19:22:26.654Z,11.72
2023-05-20T19:27:50.613Z,11.79
2023-05-20T19:33:12.786Z,11.84
2023-05-20T19:38:34.683Z,11.82
2023-05-20T19:43:56.902Z,11.85
2023-05-20T19:49:21.853Z,11.83
2023-05-20T19:54:43.645Z,11.84
2023-05-20T20:00:08.062Z,11.90
2023-05-20T20:05:35.530Z,11.78
2023-05-20T20:10:58.203Z,11.76
2023-05-20T20:16:20.596Z,11.79
2023-05-20T20:21:43.591Z,11.83
2023-05-20T20:27:06.870Z,11.87
2023-05-20T20:32:29.139Z,11.82
2023-05-20T20:37:56.390Z,11.73
2023-05-20T20:43:20.816Z,11.77
2023-05-20T20:48:47.573Z,11.82
2023-05-20T20:54:09.792Z,11.91
2023-05-20T20:59:32.596Z,11.80
2023-05-20T21:04:59.708Z,11.59
2023-05-20T21:10:21.964Z,11.71
2023-05-20T21:15:46.913Z,11.57
2023-05-20T21:21:12.631Z,11.51
2023-05-20T21:26:35.714Z,11.62
2023-05-20T21:31:58.194Z,11.56
2023-05-20T21:37:20.260Z,11.50
2023-05-20T21:42:42.532Z,11.64
2023-05-20T21:48:04.652Z,11.51
2023-05-20T21:53:26.968Z,11.53
2023-05-20T21:58:49.008Z,11.53
2023-05-20T22:04:12.427Z,11.49
2023-05-20T22:09:34.892Z,11.57
2023-05-20T22:14:57.500Z,11.56
2023-05-20T22:20:19.773Z,11.41
2023-05-20T22:25:41.863Z,11.53
2023-05-20T22:31:04.588Z,11.33
2023-05-20T22:36:34.451Z,11.38
2023-05-20T22:41:58.771Z,11.38
2023-05-20T22:47:20.843Z,11.42
2023-05-20T22:52:42.702Z,11.41
2023-05-20T22:58:04.566Z,11.30
2023-05-20T23:03:26.548Z,11.31
2023-05-20T23:08:48.721Z,11.23
2023-05-20T23:14:10.453Z,11.34
2023-05-20T23:19:31.968Z,11.32
2023-05-20T23:24:54.053Z,11.43
2023-05-20T23:30:16.047Z,11.27
2023-05-20T23:35:39.307Z,11.24
2023-05-20T23:41:02.029Z,11.33
2023-05-20T23:46:24.489Z,11.24
2023-05-20T23:51:46.265Z,11.31
2023-05-20T23:57:12.736Z,11.34
